Time,TemperatureF,DewpointF,PressureIn,WindDirection,WindDirectionDegrees,WindSpeedMPH,WindSpeedGustMPH,Humidity,HourlyPrecipIn,Conditions,Clouds,dailyrainin,SolarRadiationWatts/m^2,SoftwareType,DateUTC
2013-03-31 00:03:00,40.6,34.6,29.85,WNW,288,3.0,4.0,79,0.00,,,0.00,0,WeatherCatV1.14B232,2013-03-31 07:03:00,
2013-03-31 00:08:00,40.5,34.5,29.85,WNW,293,4.0,5.0,79,0.00,,,0.00,0,WeatherCatV1.14B232,2013-03-31 07:08:00,
2013-03-31 00:13:00,40.3,34.3,29.85,WNW,293,2.0,5.0,79,0.00,,,0.00,0,WeatherCatV1.14B232,2013-03-31 07:13:00,
2013-03-31 00:18:00,40.2,34.5,29.83,WNW,297,2.0,5.0,80,0.00,,,0.00,0,WeatherCatV1.14B232,2013-03-31 07:18:00,
2013-03-31 00:23:00,40.1,34.4,29.83,WNW,297,2.0,4.0,80,0.00,,,0.00,0,WeatherCatV1.14B232,2013-03-31 07:23:00,
2013-03-31 00:28:00,39.9,34.6,29.83,WNW,297,5.0,6.0,81,0.00,,,0.00,0,WeatherCatV1.14B232,2013-03-31 07:28:00,
2013-03-31 00:33:00,39.8,34.5,29.83,WNW,297,3.0,4.0,81,0.00,,,0.00,0,WeatherCatV1.14B232,2013-03-31 07:33:00,
2013-03-31 00:39:00,39.6,34.6,29.83,WNW,297,2.0,4.0,82,0.00,,,0.00,0,WeatherCatV1.14B232,2013-03-31 07:39:00,
2013-03-31 00:44:00,39.5,34.5,29.82,WNW,288,3.0,5.0,82,0.00,,,0.00,0,WeatherCatV1.14B232,2013-03-31 07:44:00,
2013-03-31 00:49:00,39.3,34.3,29.82,WNW,288,3.0,5.0,82,0.00,,,0.00,0,WeatherCatV1.14B232,2013-03-31 07:49:00,
2013-03-31 00:54:00,39.2,34.5,29.82,WNW,293,3.0,4.0,83,0.00,,,0.00,0,WeatherCatV1.14B232,2013-03-31 07:54:00,
2013-03-31 00:59:00,38.9,34.5,29.83,WNW,293,3.0,5.0,84,0.00,,,0.00,0,WeatherCatV1.14B232,2013-03-31 07:59:00,
2013-03-31 01:04:00,38.8,34.7,29.83,NW,310,0.0,4.0,85,0.00,,,0.00,0,WeatherCatV1.14B232,2013-03-31 08:04:00,
2013-03-31 01:09:00,38.6,34.5,29.83,NW,310,2.0,3.0,85,0.00,,,0.00,0,WeatherCatV1.14B232,2013-03-31 08:09:00,
2013-03-31 01:14:00,38.5,34.7,29.83,WNW,303,2.0,4.0,86,0.00,,,0.00,0,WeatherCatV1.14B232,2013-03-31 08:14:00,
2013-03-31 01:19:00,38.5,34.4,29.83,WNW,283,2.0,3.0,85,0.00,,,0.00,0,WeatherCatV1.14B232,2013-03-31 08:19:00,
2013-03-31 01:24:00,38.6,34.5,29.83,WNW,283,0.0,2.0,85,0.00,,,0.00,0,WeatherCatV1.14B232,2013-03-31 08:24:00,
2013-03-31 01:29:00,38.6,34.2,29.82,WNW,283,2.0,3.0,84,0.00,,,0.00,0,WeatherCatV1.14B232,2013-03-31 08:29:00,
2013-03-31 01:34:00,38.8,34.1,29.82,WNW,283,2.0,4.0,83,0.00,,,0.00,0,WeatherCatV1.14B232,2013-03-31 08:34:00,
2013-03-31 01:39:00,38.9,33.9,29.82,WNW,288,3.0,5.0,82,0.00,,,0.00,0,WeatherCatV1.14B232,2013-03-31 08:39:00,
2013-03-31 01:44:00,39.1,34.1,29.81,WNW,293,4.0,5.0,82,0.00,,,0.00,0,WeatherCatV1.14B232,2013-03-31 08:44:00,
2013-03-31 01:49:00,39.1,34.1,29.81,WNW,303,3.0,3.0,82,0.00,,,0.00,0,WeatherCatV1.14B232,2013-03-31 08:49:00,
2013-03-31 01:54:00,39.1,34.1,29.81,WNW,293,4.0,5.0,82,0.00,,,0.00,0,WeatherCatV1.14B232,2013-03-31 08:54:00,
2013-03-31 01:59:00,38.9,33.9,29.82,NW,308,7.0,9.0,82,0.00,,,0.00,0,WeatherCatV1.14B232,2013-03-31 08:59:00,
2013-03-31 02:04:00,38.8,33.8,29.82,WNW,300,7.0,8.0,82,0.00,,,0.00,0,WeatherCatV1.14B232,2013-03-31 09:04:00,
2013-03-31 02:09:00,38.6,33.6,29.82,NW,307,4.0,9.0,82,0.00,,,0.00,0,WeatherCatV1.14B232,2013-03-31 09:09:00,
2013-03-31 02:14:00,38.3,33.9,29.81,WNW,299,5.0,6.0,84,0.00,,,0.00,0,WeatherCatV1.14B232,2013-03-31 09:14:00,
2013-03-31 02:19:00,38.0,33.9,29.81,WNW,302,3.0,3.0,85,0.00,,,0.00,0,WeatherCatV1.14B232,2013-03-31 09:19:00,
2013-03-31 02:24:00,37.9,34.1,29.81,NW,314,3.0,3.0,86,0.00,,,0.00,0,WeatherCatV1.14B232,2013-03-31 09:24:00,
2013-03-31 02:29:00,37.9,34.1,29.81,NW,316,3.0,3.0,86,0.00,,,0.00,0,WeatherCatV1.14B232,2013-03-31 09:29:00,
2013-03-31 02:34:00,37.9,34.4,29.81,NW,320,4.0,4.0,87,0.00,,,0.00,0,WeatherCatV1.14B232,2013-03-31 09:34:00,
2013-03-31 02:39:00,37.8,34.3,29.81,NNW,343,3.0,3.0,87,0.00,,,0.00,0,WeatherCatV1.14B232,2013-03-31 09:39:00,
2013-03-31 02:44:00,37.8,34.3,29.81,NNW,344,4.0,4.0,87,0.00,,,0.00,0,WeatherCatV1.14B232,2013-03-31 09:44:00,
2013-03-31 02:49:00,37.9,34.4,29.81,NW,319,0.0,0.0,87,0.00,,,0.00,0,WeatherCatV1.14B232,2013-03-31 09:49:00,
2013-03-31 02:54:00,38.0,34.5,29.81,NW,318,0.0,4.0,87,0.00,,,0.00,0,WeatherCatV1.14B232,2013-03-31 09:54:00,
2013-03-31 02:59:00,38.0,34.5,29.81,NW,318,2.0,3.0,87,0.00,,,0.00,0,WeatherCatV1.14B232,2013-03-31 09:59:00,
2013-03-31 03:04:00,38.2,34.4,29.81,WNW,293,2.0,4.0,86,0.00,,,0.00,0,WeatherCatV1.14B232,2013-03-31 10:04:00,
2013-03-31 03:09:00,38.2,34.4,29.81,WNW,293,2.0,3.0,86,0.00,,,0.00,0,WeatherCatV1.14B232,2013-03-31 10:09:00,
2013-03-31 03:14:00,38.0,34.2,29.87,West,263,3.0,5.0,86,0.00,,,0.00,0,WeatherCatV1.14B232,2013-03-31 10:14:00,
2013-03-31 03:19:00,38.0,34.2,29.87,West,274,2.0,4.0,86,0.00,,,0.00,0,WeatherCatV1.14B232,2013-03-31 10:19:00,
2013-03-31 03:24:00,37.9,34.1,29.87,WNW,283,5.0,7.0,86,0.00,,,0.00,0,WeatherCatV1.14B232,2013-03-31 10:24:00,
2013-03-31 03:29:00,37.9,34.1,29.87,WNW,299,12.0,14.0,86,0.00,,,0.00,0,WeatherCatV1.14B232,2013-03-31 10:29:00,
2013-03-31 03:34:00,37.9,34.1,29.87,WNW,303,10.0,10.0,86,0.00,,,0.00,0,WeatherCatV1.14B232,2013-03-31 10:34:00,
2013-03-31 03:39:00,37.8,34.0,29.87,WNW,303,7.0,15.0,86,0.00,,,0.00,0,WeatherCatV1.14B232,2013-03-31 10:39:00,
2013-03-31 03:44:00,37.5,33.7,29.88,SW,231,3.0,12.0,86,0.00,,,0.00,0,WeatherCatV1.14B232,2013-03-31 10:44:00,
2013-03-31 03:49:00,37.3,33.5,29.88,SW,228,4.0,6.0,86,0.00,,,0.01,0,WeatherCatV1.14B232,2013-03-31 10:49:00,
2013-03-31 03:54:00,37.2,33.4,29.88,West,270,5.0,10.0,86,0.00,,,0.01,0,WeatherCatV1.14B232,2013-03-31 10:54:00,
2013-03-31 03:59:00,36.8,33.0,29.87,WSW,255,3.0,7.0,86,0.00,,,0.01,0,WeatherCatV1.14B232,2013-03-31 10:59:00,
2013-03-31 04:04:00,36.3,32.5,29.87,WNW,288,1.0,8.0,86,0.05,,,0.02,0,WeatherCatV1.14B232,2013-03-31 11:04:00,
2013-03-31 04:09:00,35.8,32.0,29.87,NNW,347,6.0,10.0,86,0.05,,,0.02,0,WeatherCatV1.14B232,2013-03-31 11:09:00,
2013-03-31 04:14:00,35.3,31.8,29.91,NW,307,6.0,10.0,87,0.04,,,0.02,0,WeatherCatV1.14B232,2013-03-31 11:14:00,
2013-03-31 04:19:00,35.5,32.0,29.91,NW,306,10.0,13.0,87,0.00,,,0.02,0,WeatherCatV1.14B232,2013-03-31 11:19:00,
2013-03-31 04:24:00,35.5,31.7,29.91,West,273,13.0,15.0,86,0.00,,,0.02,0,WeatherCatV1.14B232,2013-03-31 11:24:00,
2013-03-31 04:29:00,35.3,31.2,29.91,NW,309,10.0,15.0,85,0.00,,,0.02,0,WeatherCatV1.14B232,2013-03-31 11:29:00,
2013-03-31 04:34:00,35.0,31.0,29.91,WNW,303,7.0,11.0,85,0.00,,,0.02,0,WeatherCatV1.14B232,2013-03-31 11:34:00,
2013-03-31 04:39:00,34.7,31.2,29.91,WNW,288,2.0,12.0,87,0.00,,,0.02,0,WeatherCatV1.14B232,2013-03-31 11:39:00,
2013-03-31 04:44:00,34.3,31.1,29.92,NW,314,12.0,13.0,88,0.00,,,0.02,0,WeatherCatV1.14B232,2013-03-31 11:44:00,
2013-03-31 04:49:00,34.3,31.4,29.92,WNW,301,13.0,16.0,89,0.00,,,0.02,0,WeatherCatV1.14B232,2013-03-31 11:49:00,
2013-03-31 04:54:00,34.4,31.2,29.92,NW,305,10.0,17.0,88,0.00,,,0.02,0,WeatherCatV1.14B232,2013-03-31 11:54:00,
2013-03-31 04:59:00,34.9,31.1,29.92,WNW,301,9.0,14.0,86,0.00,,,0.02,0,WeatherCatV1.14B232,2013-03-31 11:59:00,
2013-03-31 05:05:00,35.2,31.2,29.92,WNW,298,2.0,7.0,85,0.00,,,0.02,0,WeatherCatV1.14B232,2013-03-31 12:05:00,
2013-03-31 05:10:00,35.2,31.4,29.92,WNW,293,5.0,10.0,86,0.00,,,0.02,0,WeatherCatV1.14B232,2013-03-31 12:10:00,
2013-03-31 05:15:00,34.9,31.1,29.95,West,264,4.0,9.0,86,0.00,,,0.02,0,WeatherCatV1.14B232,2013-03-31 12:15:00,
2013-03-31 05:20:00,34.6,31.1,29.95,NW,304,9.0,13.0,87,0.00,,,0.02,0,WeatherCatV1.14B232,2013-03-31 12:20:00,
2013-03-31 05:25:00,34.1,30.9,29.95,WSW,257,4.0,14.0,88,0.00,,,0.02,0,WeatherCatV1.14B232,2013-03-31 12:25:00,
2013-03-31 05:30:00,33.8,30.6,29.97,West,259,1.0,10.0,88,0.00,,,0.02,0,WeatherCatV1.14B232,2013-03-31 12:30:00,
2013-03-31 05:35:00,33.4,30.5,29.97,WSW,255,2.0,7.0,89,0.00,,,0.02,0,WeatherCatV1.14B232,2013-03-31 12:35:00,
2013-03-31 05:40:00,33.2,30.3,29.97,WSW,249,2.0,3.0,89,0.00,,,0.02,0,WeatherCatV1.14B232,2013-03-31 12:40:00,
2013-03-31 05:45:00,32.9,30.3,29.97,WNW,298,7.0,7.0,90,0.00,,,0.02,0,WeatherCatV1.14B232,2013-03-31 12:45:00,
2013-03-31 05:50:00,32.8,30.2,29.97,WNW,297,6.0,6.0,90,0.00,,,0.02,0,WeatherCatV1.14B232,2013-03-31 12:50:00,
2013-03-31 05:55:00,32.8,30.5,29.97,NW,305,6.0,11.0,91,0.00,,,0.02,0,WeatherCatV1.14B232,2013-03-31 12:55:00,
2013-03-31 06:00:00,32.7,30.4,29.98,WNW,303,8.0,10.0,91,0.00,,,0.02,0,WeatherCatV1.14B232,2013-03-31 13:00:00,
2013-03-31 06:05:00,32.7,30.4,29.98,WNW,297,6.0,9.0,91,0.00,,,0.02,0,WeatherCatV1.14B232,2013-03-31 13:05:00,
2013-03-31 06:10:00,32.5,30.2,29.98,NW,311,6.0,9.0,91,0.00,,,0.02,0,WeatherCatV1.14B232,2013-03-31 13:10:00,
2013-03-31 06:15:00,32.4,30.3,29.99,NW,311,3.0,10.0,92,0.00,,,0.02,0,WeatherCatV1.14B232,2013-03-31 13:15:00,
2013-03-31 06:20:00,32.4,30.3,29.99,WNW,303,8.0,11.0,92,0.00,,,0.02,0,WeatherCatV1.14B232,2013-03-31 13:20:00,
2013-03-31 06:25:00,32.4,30.3,29.99,NW,313,5.0,7.0,92,0.00,,,0.02,0,WeatherCatV1.14B232,2013-03-31 13:25:00,
2013-03-31 06:30:00,32.4,30.3,29.99,WNW,297,3.0,7.0,92,0.00,,,0.02,0,WeatherCatV1.14B232,2013-03-31 13:30:00,
2013-03-31 06:35:00,32.4,30.3,29.99,WNW,293,3.0,6.0,92,0.00,,,0.02,0,WeatherCatV1.14B232,2013-03-31 13:35:00,
2013-03-31 06:40:00,32.4,30.3,29.99,WNW,298,3.0,6.0,92,0.00,,,0.02,0,WeatherCatV1.14B232,2013-03-31 13:40:00,
2013-03-31 06:45:00,32.5,30.4,30.00,NW,304,2.0,4.0,92,0.00,,,0.02,0,WeatherCatV1.14B232,2013-03-31 13:45:00,
2013-03-31 06:50:00,32.5,30.4,30.00,WNW,297,3.0,5.0,92,0.00,,,0.02,7,WeatherCatV1.14B232,2013-03-31 13:50:00,
2013-03-31 06:55:00,32.5,30.4,30.00,WNW,283,5.0,5.0,92,0.00,,,0.02,7,WeatherCatV1.14B232,2013-03-31 13:55:00,
2013-03-31 07:00:00,32.5,30.4,30.00,WNW,293,6.0,10.0,92,0.00,,,0.02,0,WeatherCatV1.14B232,2013-03-31 14:00:00,
2013-03-31 07:05:00,32.5,30.4,30.00,WNW,283,6.0,11.0,92,0.00,,,0.02,0,WeatherCatV1.14B232,2013-03-31 14:05:00,
2013-03-31 07:10:00,32.4,30.3,30.00,WNW,297,8.0,9.0,92,0.00,,,0.02,0,WeatherCatV1.14B232,2013-03-31 14:10:00,
2013-03-31 07:15:00,32.2,30.1,30.00,WNW,301,13.0,14.0,92,0.00,,,0.02,0,WeatherCatV1.14B232,2013-03-31 14:15:00,
2013-03-31 07:20:00,32.1,30.0,30.00,WNW,297,10.0,14.0,92,0.00,,,0.02,0,WeatherCatV1.14B232,2013-03-31 14:20:00,
2013-03-31 07:25:00,31.9,29.8,30.00,NW,310,6.0,12.0,92,0.00,,,0.02,5,WeatherCatV1.14B232,2013-03-31 14:25:00,
2013-03-31 07:30:00,31.9,30.1,30.01,WSW,255,5.0,11.0,93,0.00,,,0.02,5,WeatherCatV1.14B232,2013-03-31 14:30:00,
2013-03-31 07:35:00,31.9,30.1,30.01,WNW,298,8.0,11.0,93,0.00,,,0.02,5,WeatherCatV1.14B232,2013-03-31 14:35:00,
2013-03-31 07:40:00,31.9,30.1,30.01,NW,312,7.0,10.0,93,0.00,,,0.02,9,WeatherCatV1.14B232,2013-03-31 14:40:00,
2013-03-31 07:45:00,31.8,30.0,30.01,WNW,288,10.0,13.0,93,0.00,,,0.02,14,WeatherCatV1.14B232,2013-03-31 14:45:00,
2013-03-31 07:50:00,31.8,30.0,30.01,WNW,303,7.0,14.0,93,0.00,,,0.02,16,WeatherCatV1.14B232,2013-03-31 14:50:00,
2013-03-31 07:55:00,31.8,30.0,30.01,WNW,288,5.0,10.0,93,0.00,,,0.02,16,WeatherCatV1.14B232,2013-03-31 14:55:00,
2013-03-31 08:00:00,31.8,30.0,30.00,West,266,4.0,9.0,93,0.00,,,0.02,14,WeatherCatV1.14B232,2013-03-31 15:00:00,
2013-03-31 08:05:00,31.8,30.0,30.00,WNW,283,4.0,10.0,93,0.00,,,0.02,25,WeatherCatV1.14B232,2013-03-31 15:05:00,
2013-03-31 08:10:00,31.8,30.0,30.00,West,267,7.0,10.0,93,0.00,,,0.02,26,WeatherCatV1.14B232,2013-03-31 15:10:00,
2013-03-31 08:15:00,31.8,30.0,30.01,WNW,293,10.0,10.0,93,0.00,,,0.02,19,WeatherCatV1.14B232,2013-03-31 15:15:00,
2013-03-31 08:20:00,31.8,30.0,30.01,West,260,4.0,6.0,93,0.00,,,0.02,16,WeatherCatV1.14B232,2013-03-31 15:20:00,
2013-03-31 08:25:00,31.8,30.0,30.01,WNW,299,10.0,10.0,93,0.00,,,0.02,18,WeatherCatV1.14B232,2013-03-31 15:25:00,
2013-03-31 08:30:00,31.9,30.1,30.02,NW,305,8.0,10.0,93,0.00,,,0.02,19,WeatherCatV1.14B232,2013-03-31 15:30:00,
2013-03-31 08:35:00,31.9,30.1,30.02,WNW,293,3.0,10.0,93,0.00,,,0.02,25,WeatherCatV1.14B232,2013-03-31 15:35:00,
2013-03-31 08:40:00,31.9,30.1,30.02,WNW,297,5.0,8.0,93,0.00,,,0.02,47,WeatherCatV1.14B232,2013-03-31 15:40:00,
2013-03-31 08:45:00,31.9,30.1,30.01,WNW,303,8.0,8.0,93,0.00,,,0.02,90,WeatherCatV1.14B232,2013-03-31 15:45:00,
2013-03-31 08:50:00,31.9,30.1,30.01,West,276,3.0,7.0,93,0.00,,,0.03,98,WeatherCatV1.14B232,2013-03-31 15:50:00,
2013-03-31 08:55:00,32.1,30.3,30.01,WNW,288,3.0,6.0,93,0.00,,,0.03,134,WeatherCatV1.14B232,2013-03-31 15:55:00,
2013-03-31 09:00:00,32.1,30.3,30.02,NW,312,4.0,6.0,93,0.00,,,0.03,176,WeatherCatV1.14B232,2013-03-31 16:00:00,
2013-03-31 09:05:00,32.2,30.4,30.02,WNW,298,0.0,0.0,93,0.00,,,0.03,360,WeatherCatV1.14B232,2013-03-31 16:05:00,
2013-03-31 09:10:00,32.4,30.9,30.02,WNW,288,4.0,7.0,94,0.00,,,0.04,267,WeatherCatV1.14B232,2013-03-31 16:10:00,
2013-03-31 09:15:00,32.5,31.0,30.04,WNW,283,2.0,4.0,94,0.00,,,0.04,199,WeatherCatV1.14B232,2013-03-31 16:15:00,
2013-03-31 09:20:00,32.5,31.0,30.04,West,273,4.0,4.0,94,0.06,,,0.05,346,WeatherCatV1.14B232,2013-03-31 16:20:00,
2013-03-31 09:25:00,32.8,31.3,30.04,WSW,257,5.0,6.0,94,0.06,,,0.05,380,WeatherCatV1.14B232,2013-03-31 16:25:00,
2013-03-31 09:30:00,33.1,31.6,30.03,WSW,257,4.0,7.0,94,0.05,,,0.05,504,WeatherCatV1.14B232,2013-03-31 16:30:00,
2013-03-31 09:35:00,33.2,31.7,30.03,NW,304,2.0,5.0,94,0.00,,,0.05,255,WeatherCatV1.14B232,2013-03-31 16:35:00,
2013-03-31 09:40:00,33.2,31.7,30.03,WNW,301,4.0,7.0,94,0.00,,,0.05,301,WeatherCatV1.14B232,2013-03-31 16:40:00,
2013-03-31 09:45:00,33.5,32.0,30.02,WNW,283,3.0,5.0,94,0.00,,,0.05,751,WeatherCatV1.14B232,2013-03-31 16:45:00,
2013-03-31 09:50:00,33.8,32.3,30.02,West,261,4.0,7.0,94,0.00,,,0.05,199,WeatherCatV1.14B232,2013-03-31 16:50:00,
2013-03-31 09:55:00,33.8,32.3,30.02,WNW,283,1.0,4.0,94,0.00,,,0.05,209,WeatherCatV1.14B232,2013-03-31 16:55:00,
2013-03-31 10:00:00,33.8,32.3,30.03,WNW,297,4.0,4.0,94,0.00,,,0.05,257,WeatherCatV1.14B232,2013-03-31 17:00:00,
2013-03-31 10:05:00,33.8,32.3,30.03,West,270,5.0,10.0,94,0.00,,,0.05,186,WeatherCatV1.14B232,2013-03-31 17:05:00,
2013-03-31 10:10:00,33.5,32.0,30.03,WNW,283,5.0,9.0,94,0.00,,,0.05,216,WeatherCatV1.14B232,2013-03-31 17:10:00,
2013-03-31 10:16:00,33.4,31.9,30.02,NW,312,5.0,7.0,94,0.00,,,0.05,255,WeatherCatV1.14B232,2013-03-31 17:16:00,
2013-03-31 10:22:00,33.5,32.0,30.02,NW,315,7.0,11.0,94,0.00,,,0.05,276,WeatherCatV1.14B232,2013-03-31 17:22:00,
2013-03-31 10:27:00,33.5,32.0,30.02,WNW,293,3.0,7.0,94,0.00,,,0.05,269,WeatherCatV1.14B232,2013-03-31 17:27:00,
2013-03-31 10:32:00,33.7,32.2,30.02,WNW,293,9.0,12.0,94,0.00,,,0.05,246,WeatherCatV1.14B232,2013-03-31 17:32:00,
2013-03-31 10:37:00,33.7,32.2,30.02,WNW,300,6.0,14.0,94,0.00,,,0.05,250,WeatherCatV1.14B232,2013-03-31 17:37:00,
2013-03-31 10:42:00,33.5,32.0,30.02,WNW,301,10.0,11.0,94,0.00,,,0.05,248,WeatherCatV1.14B232,2013-03-31 17:42:00,
2013-03-31 10:47:00,33.7,32.2,30.02,West,276,6.0,6.0,94,0.00,,,0.05,244,WeatherCatV1.14B232,2013-03-31 17:47:00,
2013-03-31 10:52:00,33.7,32.2,30.02,WNW,288,3.0,6.0,94,0.00,,,0.05,178,WeatherCatV1.14B232,2013-03-31 17:52:00,
2013-03-31 10:57:00,33.8,32.3,30.02,WNW,293,3.0,4.0,94,0.00,,,0.05,125,WeatherCatV1.14B232,2013-03-31 17:57:00,
2013-03-31 11:02:00,34.0,32.5,30.03,WNW,283,3.0,7.0,94,0.00,,,0.05,179,WeatherCatV1.14B232,2013-03-31 18:02:00,
2013-03-31 11:07:00,34.1,32.6,30.03,WNW,300,4.0,6.0,94,0.00,,,0.05,243,WeatherCatV1.14B232,2013-03-31 18:07:00,
2013-03-31 11:13:00,34.4,32.9,30.03,North,349,0.0,4.0,94,0.00,,,0.05,297,WeatherCatV1.14B232,2013-03-31 18:13:00,
2013-03-31 11:18:00,34.9,33.4,30.00,NW,316,3.0,9.0,94,0.00,,,0.05,364,WeatherCatV1.14B232,2013-03-31 18:18:00,
2013-03-31 11:23:00,34.7,33.2,30.00,WNW,297,2.0,11.0,94,0.00,,,0.05,399,WeatherCatV1.14B232,2013-03-31 18:23:00,
2013-03-31 11:28:00,35.0,33.5,30.00,North,353,6.0,7.0,94,0.00,,,0.05,462,WeatherCatV1.14B232,2013-03-31 18:28:00,
2013-03-31 11:33:00,35.2,33.4,30.00,WNW,288,7.0,11.0,93,0.00,,,0.05,232,WeatherCatV1.14B232,2013-03-31 18:33:00,
2013-03-31 11:38:00,35.2,33.4,30.00,NW,312,3.0,6.0,93,0.00,,,0.05,338,WeatherCatV1.14B232,2013-03-31 18:38:00,
2013-03-31 11:43:00,35.2,33.4,30.00,WNW,297,6.0,11.0,93,0.00,,,0.05,397,WeatherCatV1.14B232,2013-03-31 18:43:00,
2013-03-31 11:48:00,35.2,33.1,30.00,WNW,288,6.0,6.0,92,0.00,,,0.05,424,WeatherCatV1.14B232,2013-03-31 18:48:00,
2013-03-31 11:53:00,35.3,32.9,30.00,NW,314,11.0,14.0,91,0.00,,,0.05,450,WeatherCatV1.14B232,2013-03-31 18:53:00,
2013-03-31 11:58:00,35.5,32.0,30.00,NW,304,12.0,19.0,87,0.00,,,0.05,677,WeatherCatV1.14B232,2013-03-31 18:58:00,
2013-03-31 12:03:00,35.8,30.2,30.01,West,273,8.0,15.0,80,0.00,,,0.05,605,WeatherCatV1.14B232,2013-03-31 19:03:00,
2013-03-31 12:08:00,36.0,29.2,30.01,NNW,344,4.0,18.0,76,0.00,,,0.05,666,WeatherCatV1.14B232,2013-03-31 19:08:00,
2013-03-31 12:13:00,36.5,28.7,30.01,West,272,7.0,19.0,73,0.00,,,0.05,631,WeatherCatV1.14B232,2013-03-31 19:13:00,
2013-03-31 12:18:00,36.8,28.6,30.01,NW,309,12.0,15.0,72,0.00,,,0.05,536,WeatherCatV1.14B232,2013-03-31 19:18:00,
2013-03-31 12:23:00,36.9,28.0,30.01,West,274,4.0,18.0,70,0.00,,,0.05,728,WeatherCatV1.14B232,2013-03-31 19:23:00,
2013-03-31 12:28:00,37.2,29.0,30.01,WSW,247,4.0,13.0,72,0.00,,,0.05,654,WeatherCatV1.14B232,2013-03-31 19:28:00,
2013-03-31 12:33:00,37.5,29.3,30.01,NW,316,4.0,12.0,72,0.00,,,0.05,821,WeatherCatV1.14B232,2013-03-31 19:33:00,
2013-03-31 12:38:00,37.6,28.4,30.01,WSW,254,5.0,11.0,69,0.00,,,0.05,571,WeatherCatV1.14B232,2013-03-31 19:38:00,
2013-03-31 12:43:00,38.0,28.4,30.01,West,271,4.0,12.0,68,0.00,,,0.05,803,WeatherCatV1.14B232,2013-03-31 19:43:00,
2013-03-31 12:48:00,38.5,28.5,30.01,WNW,283,6.0,10.0,67,0.00,,,0.05,758,WeatherCatV1.14B232,2013-03-31 19:48:00,
2013-03-31 12:53:00,38.6,27.9,30.01,West,259,5.0,16.0,65,0.00,,,0.05,775,WeatherCatV1.14B232,2013-03-31 19:53:00,
2013-03-31 12:58:00,38.5,27.4,30.01,NW,316,10.0,14.0,64,0.00,,,0.05,710,WeatherCatV1.14B232,2013-03-31 19:58:00,
2013-03-31 13:03:00,38.5,27.4,30.00,WNW,288,5.0,12.0,64,0.00,,,0.05,508,WeatherCatV1.14B232,2013-03-31 20:03:00,
2013-03-31 13:08:00,38.6,27.5,30.00,WNW,283,10.0,13.0,64,0.00,,,0.05,923,WeatherCatV1.14B232,2013-03-31 20:08:00,
2013-03-31 13:13:00,38.6,26.7,30.00,West,266,9.0,16.0,62,0.00,,,0.05,642,WeatherCatV1.14B232,2013-03-31 20:13:00,
2013-03-31 13:18:00,38.5,26.2,30.00,WNW,283,6.0,11.0,61,0.00,,,0.05,408,WeatherCatV1.14B232,2013-03-31 20:18:00,
2013-03-31 13:23:00,38.5,27.4,30.00,SSW,208,0.0,11.0,64,0.00,,,0.05,508,WeatherCatV1.14B232,2013-03-31 20:23:00,
2013-03-31 13:28:00,38.8,27.3,30.00,WNW,297,7.0,11.0,63,0.00,,,0.05,594,WeatherCatV1.14B232,2013-03-31 20:28:00,
2013-03-31 13:33:00,39.2,28.4,30.00,WNW,288,7.0,13.0,65,0.00,,,0.05,519,WeatherCatV1.14B232,2013-03-31 20:33:00,
2013-03-31 13:38:00,39.1,26.8,30.00,WNW,293,2.0,11.0,61,0.00,,,0.05,461,WeatherCatV1.14B232,2013-03-31 20:38:00,
2013-03-31 13:43:00,38.8,26.1,30.00,West,277,6.0,17.0,60,0.00,,,0.05,438,WeatherCatV1.14B232,2013-03-31 20:43:00,
2013-03-31 13:48:00,38.5,26.2,30.00,West,264,3.0,13.0,61,0.00,,,0.05,466,WeatherCatV1.14B232,2013-03-31 20:48:00,
2013-03-31 13:53:00,38.3,26.0,30.00,West,269,10.0,13.0,61,0.00,,,0.05,585,WeatherCatV1.14B232,2013-03-31 20:53:00,
2013-03-31 13:58:00,38.5,25.8,30.00,WNW,293,9.0,14.0,60,0.00,,,0.05,589,WeatherCatV1.14B232,2013-03-31 20:58:00,
2013-03-31 14:03:00,38.6,25.1,29.99,NW,314,11.0,16.0,58,0.00,,,0.05,575,WeatherCatV1.14B232,2013-03-31 21:03:00,
2013-03-31 14:08:00,38.6,25.1,29.99,WNW,293,3.0,11.0,58,0.00,,,0.05,645,WeatherCatV1.14B232,2013-03-31 21:08:00,
2013-03-31 14:13:00,39.2,26.1,29.99,NW,320,10.0,16.0,59,0.00,,,0.05,534,WeatherCatV1.14B232,2013-03-31 21:13:00,
2013-03-31 14:18:00,39.3,26.6,30.00,WNW,298,10.0,10.0,60,0.00,,,0.05,487,WeatherCatV1.14B232,2013-03-31 21:18:00,
2013-03-31 14:23:00,39.3,25.8,30.00,WSW,255,5.0,6.0,58,0.00,,,0.05,478,WeatherCatV1.14B232,2013-03-31 21:23:00,
2013-03-31 14:28:00,39.3,25.4,30.00,West,272,10.0,15.0,57,0.00,,,0.05,587,WeatherCatV1.14B232,2013-03-31 21:28:00,
2013-03-31 14:34:00,38.9,25.0,30.00,WNW,299,12.0,16.0,57,0.00,,,0.05,427,WeatherCatV1.14B232,2013-03-31 21:34:00,
2013-03-31 14:39:00,38.9,25.4,30.00,WNW,288,9.0,12.0,58,0.00,,,0.05,803,WeatherCatV1.14B232,2013-03-31 21:39:00,
2013-03-31 14:44:00,39.2,24.8,29.99,NW,304,6.0,12.0,56,0.00,,,0.05,362,WeatherCatV1.14B232,2013-03-31 21:44:00,
2013-03-31 14:49:00,39.2,25.7,29.99,West,273,8.0,12.0,58,0.00,,,0.05,380,WeatherCatV1.14B232,2013-03-31 21:49:00,
2013-03-31 14:54:00,39.2,26.1,29.99,SE,141,5.0,17.0,59,0.00,,,0.05,621,WeatherCatV1.14B232,2013-03-31 21:54:00,
2013-03-31 14:59:00,40.5,26.9,29.98,NW,305,6.0,15.0,58,0.00,,,0.05,856,WeatherCatV1.14B232,2013-03-31 21:59:00,
2013-03-31 15:04:00,40.9,27.3,29.98,West,270,11.0,13.0,58,0.00,,,0.05,752,WeatherCatV1.14B232,2013-03-31 22:04:00,
2013-03-31 15:09:00,41.3,27.7,29.98,WNW,283,5.0,16.0,58,0.00,,,0.05,858,WeatherCatV1.14B232,2013-03-31 22:09:00,
2013-03-31 15:14:00,41.2,27.1,29.98,WNW,283,10.0,14.0,57,0.00,,,0.05,803,WeatherCatV1.14B232,2013-03-31 22:14:00,
2013-03-31 15:19:00,40.9,27.3,29.98,WNW,288,13.0,15.0,58,0.00,,,0.05,902,WeatherCatV1.14B232,2013-03-31 22:19:00,
2013-03-31 15:24:00,40.9,27.7,29.98,West,263,5.0,10.0,59,0.00,,,0.05,914,WeatherCatV1.14B232,2013-03-31 22:24:00,
2013-03-31 15:29:00,41.8,27.7,29.97,West,278,7.0,7.0,57,0.00,,,0.05,738,WeatherCatV1.14B232,2013-03-31 22:29:00,
2013-03-31 15:35:00,41.5,25.7,29.97,NW,307,13.0,21.0,53,0.00,,,0.05,410,WeatherCatV1.14B232,2013-03-31 22:35:00,
2013-03-31 15:40:00,39.9,26.8,29.97,West,276,5.0,21.0,59,0.00,,,0.05,381,WeatherCatV1.14B232,2013-03-31 22:40:00,
2013-03-31 15:45:00,38.8,28.1,29.99,WSW,254,7.0,14.0,65,0.00,,,0.05,302,WeatherCatV1.14B232,2013-03-31 22:45:00,
2013-03-31 15:50:00,37.3,28.8,29.99,West,278,9.0,19.0,71,0.00,,,0.05,225,WeatherCatV1.14B232,2013-03-31 22:50:00,
2013-03-31 15:55:00,36.2,29.1,29.99,West,275,8.0,10.0,75,0.00,,,0.05,304,WeatherCatV1.14B232,2013-03-31 22:55:00,
2013-03-31 16:00:00,35.9,29.1,30.02,WNW,293,6.0,16.0,76,0.00,,,0.05,413,WeatherCatV1.14B232,2013-03-31 23:00:00,
2013-03-31 16:05:00,36.0,27.9,30.02,WNW,297,13.0,15.0,72,0.00,,,0.05,482,WeatherCatV1.14B232,2013-03-31 23:05:00,
2013-03-31 16:10:00,36.3,28.5,30.02,WNW,297,15.0,15.0,73,0.00,,,0.05,566,WeatherCatV1.14B232,2013-03-31 23:10:00,
2013-03-31 16:15:00,36.6,28.4,30.02,WNW,297,6.0,9.0,72,0.00,,,0.05,288,WeatherCatV1.14B232,2013-03-31 23:15:00,
2013-03-31 16:20:00,36.9,28.4,30.02,WNW,288,7.0,11.0,71,0.00,,,0.05,290,WeatherCatV1.14B232,2013-03-31 23:20:00,
2013-03-31 16:25:00,37.2,28.0,30.02,WNW,303,15.0,19.0,69,0.00,,,0.05,308,WeatherCatV1.14B232,2013-03-31 23:25:00,
2013-03-31 16:30:00,37.2,27.6,30.01,NW,307,7.0,14.0,68,0.00,,,0.05,429,WeatherCatV1.14B232,2013-03-31 23:30:00,
2013-03-31 16:35:00,37.0,27.8,30.01,West,261,6.0,16.0,69,0.00,,,0.05,329,WeatherCatV1.14B232,2013-03-31 23:35:00,
2013-03-31 16:40:00,37.0,28.1,30.01,West,272,3.0,10.0,70,0.00,,,0.05,302,WeatherCatV1.14B232,2013-03-31 23:40:00,
2013-03-31 16:45:00,37.0,28.5,30.01,West,275,13.0,15.0,71,0.00,,,0.05,357,WeatherCatV1.14B232,2013-03-31 23:45:00,
2013-03-31 16:50:00,36.9,28.0,30.01,WNW,301,8.0,15.0,70,0.00,,,0.05,292,WeatherCatV1.14B232,2013-03-31 23:50:00,
2013-03-31 16:55:00,36.9,28.0,30.01,WSW,247,14.0,16.0,70,0.00,,,0.05,232,WeatherCatV1.14B232,2013-03-31 23:55:00,
2013-03-31 17:00:00,36.8,27.9,30.00,NW,310,14.0,14.0,70,0.00,,,0.05,225,WeatherCatV1.14B232,2013-04-01 00:00:00,
2013-03-31 17:05:00,36.8,28.3,30.00,WNW,293,17.0,17.0,71,0.00,,,0.05,438,WeatherCatV1.14B232,2013-04-01 00:05:00,
2013-03-31 17:10:00,36.8,28.3,30.00,WNW,303,9.0,19.0,71,0.00,,,0.05,221,WeatherCatV1.14B232,2013-04-01 00:10:00,
2013-03-31 17:15:00,36.8,27.9,30.02,WSW,256,5.0,17.0,70,0.00,,,0.05,207,WeatherCatV1.14B232,2013-04-01 00:15:00,
2013-03-31 17:20:00,36.6,27.8,30.02,WNW,288,6.0,18.0,70,0.00,,,0.05,216,WeatherCatV1.14B232,2013-04-01 00:20:00,
2013-03-31 17:25:00,36.5,25.9,30.02,West,273,11.0,15.0,65,0.00,,,0.05,200,WeatherCatV1.14B232,2013-04-01 00:25:00,
2013-03-31 17:30:00,36.6,26.7,30.02,WSW,249,4.0,9.0,67,0.00,,,0.05,162,WeatherCatV1.14B232,2013-04-01 00:30:00,
2013-03-31 17:35:00,36.8,26.9,30.02,West,266,4.0,6.0,67,0.00,,,0.05,144,WeatherCatV1.14B232,2013-04-01 00:35:00,
2013-03-31 17:40:00,37.0,27.8,30.02,WSW,251,4.0,5.0,69,0.00,,,0.05,113,WeatherCatV1.14B232,2013-04-01 00:40:00,
2013-03-31 17:45:00,37.0,27.1,30.02,WSW,242,9.0,11.0,67,0.00,,,0.05,70,WeatherCatV1.14B232,2013-04-01 00:45:00,
2013-03-31 17:50:00,36.8,27.9,30.02,West,270,16.0,16.0,70,0.00,,,0.05,86,WeatherCatV1.14B232,2013-04-01 00:50:00,
2013-03-31 17:55:00,36.0,29.5,30.02,WSW,250,6.0,8.0,77,0.00,,,0.05,70,WeatherCatV1.14B232,2013-04-01 00:55:00,
2013-03-31 18:00:00,35.2,30.0,30.05,SW,227,2.0,4.0,81,0.00,,,0.05,74,WeatherCatV1.14B232,2013-04-01 01:00:00,
2013-03-31 18:05:00,34.3,29.4,30.05,NW,309,5.0,5.0,82,0.00,,,0.05,130,WeatherCatV1.14B232,2013-04-01 01:05:00,
2013-03-31 18:10:00,33.2,28.6,30.05,WNW,288,8.0,11.0,83,0.00,,,0.06,104,WeatherCatV1.14B232,2013-04-01 01:10:00,
2013-03-31 18:15:00,32.4,28.4,30.05,NW,307,8.0,12.0,85,0.00,,,0.06,102,WeatherCatV1.14B232,2013-04-01 01:15:00,
2013-03-31 18:20:00,31.9,28.2,30.05,WNW,283,6.0,12.0,86,0.00,,,0.06,104,WeatherCatV1.14B232,2013-04-01 01:20:00,
2013-03-31 18:25:00,31.6,28.2,30.05,WNW,288,14.0,14.0,87,0.00,,,0.06,121,WeatherCatV1.14B232,2013-04-01 01:25:00,
2013-03-31 18:30:00,31.6,28.5,30.07,West,274,13.0,13.0,88,0.00,,,0.06,218,WeatherCatV1.14B232,2013-04-01 01:30:00,
2013-03-31 18:35:00,31.8,28.7,30.07,NW,312,10.0,15.0,88,0.00,,,0.06,90,WeatherCatV1.14B232,2013-04-01 01:35:00,
2013-03-31 18:40:00,31.9,28.5,30.07,NW,306,8.0,15.0,87,0.00,,,0.06,70,WeatherCatV1.14B232,2013-04-01 01:40:00,
2013-03-31 18:45:00,32.1,28.4,30.07,NW,306,12.0,16.0,86,0.00,,,0.06,62,WeatherCatV1.14B232,2013-04-01 01:45:00,
2013-03-31 18:50:00,32.2,28.2,30.07,NW,305,15.0,15.0,85,0.00,,,0.06,37,WeatherCatV1.14B232,2013-04-01 01:50:00,
2013-03-31 18:55:00,32.4,28.4,30.07,West,279,6.0,10.0,85,0.00,,,0.06,23,WeatherCatV1.14B232,2013-04-01 01:55:00,
2013-03-31 19:00:00,32.2,28.5,30.06,WNW,288,8.0,12.0,86,0.00,,,0.06,14,WeatherCatV1.14B232,2013-04-01 02:00:00,
2013-03-31 19:05:00,32.2,28.8,30.06,WNW,293,7.0,11.0,87,0.00,,,0.06,11,WeatherCatV1.14B232,2013-04-01 02:05:00,
2013-03-31 19:10:00,32.1,28.7,30.06,WNW,288,5.0,10.0,87,0.00,,,0.06,7,WeatherCatV1.14B232,2013-04-01 02:10:00,
2013-03-31 19:15:00,31.9,28.8,30.07,NW,312,7.0,13.0,88,0.00,,,0.06,5,WeatherCatV1.14B232,2013-04-01 02:15:00,
2013-03-31 19:20:00,31.9,28.5,30.07,WNW,288,8.0,12.0,87,0.00,,,0.06,0,WeatherCatV1.14B232,2013-04-01 02:20:00,
2013-03-31 19:25:00,31.9,28.5,30.07,WNW,303,10.0,13.0,87,0.00,,,0.06,0,WeatherCatV1.14B232,2013-04-01 02:25:00,
2013-03-31 19:30:00,31.9,28.5,30.07,NW,306,7.0,11.0,87,0.00,,,0.06,0,WeatherCatV1.14B232,2013-04-01 02:30:00,
2013-03-31 19:35:00,31.8,28.4,30.07,WNW,298,12.0,14.0,87,0.00,,,0.06,0,WeatherCatV1.14B232,2013-04-01 02:35:00,
2013-03-31 19:40:00,31.8,28.1,30.07,WNW,293,10.0,11.0,86,0.00,,,0.06,0,WeatherCatV1.14B232,2013-04-01 02:40:00,
2013-03-31 19:45:00,31.9,28.2,30.07,NW,305,7.0,14.0,86,0.00,,,0.06,0,WeatherCatV1.14B232,2013-04-01 02:45:00,
2013-03-31 19:50:00,31.9,28.2,30.07,WNW,293,11.0,12.0,86,0.00,,,0.06,0,WeatherCatV1.14B232,2013-04-01 02:50:00,
2013-03-31 19:55:00,31.9,28.2,30.07,WNW,302,9.0,13.0,86,0.00,,,0.06,0,WeatherCatV1.14B232,2013-04-01 02:55:00,
2013-03-31 20:00:00,31.9,27.9,30.07,NW,318,14.0,15.0,85,0.00,,,0.06,0,WeatherCatV1.14B232,2013-04-01 03:00:00,
2013-03-31 20:05:00,31.9,27.6,30.07,WNW,288,5.0,15.0,84,0.00,,,0.06,0,WeatherCatV1.14B232,2013-04-01 03:05:00,
2013-03-31 20:10:00,31.9,27.6,30.07,WNW,303,7.0,13.0,84,0.00,,,0.06,0,WeatherCatV1.14B232,2013-04-01 03:10:00,
2013-03-31 20:15:00,31.8,27.2,30.07,West,270,9.0,12.0,83,0.00,,,0.06,0,WeatherCatV1.14B232,2013-04-01 03:15:00,
2013-03-31 20:20:00,31.6,27.0,30.07,WNW,283,6.0,11.0,83,0.00,,,0.06,0,WeatherCatV1.14B232,2013-04-01 03:20:00,
2013-03-31 20:25:00,31.5,26.9,30.07,WNW,283,4.0,9.0,83,0.00,,,0.06,0,WeatherCatV1.14B232,2013-04-01 03:25:00,
2013-03-31 20:30:00,31.5,26.7,30.06,WNW,283,3.0,9.0,82,0.00,,,0.06,0,WeatherCatV1.14B232,2013-04-01 03:30:00,
2013-03-31 20:35:00,31.5,26.7,30.06,West,270,7.0,12.0,82,0.00,,,0.06,0,WeatherCatV1.14B232,2013-04-01 03:35:00,
2013-03-31 20:40:00,31.5,26.7,30.06,WNW,293,4.0,10.0,82,0.00,,,0.06,0,WeatherCatV1.14B232,2013-04-01 03:40:00,
2013-03-31 20:45:00,31.3,26.5,30.08,WNW,300,8.0,10.0,82,0.00,,,0.06,0,WeatherCatV1.14B232,2013-04-01 03:45:00,
2013-03-31 20:50:00,31.3,26.2,30.08,WNW,303,5.0,10.0,81,0.00,,,0.06,0,WeatherCatV1.14B232,2013-04-01 03:50:00,
2013-03-31 20:55:00,31.3,26.5,30.08,WNW,302,6.0,12.0,82,0.00,,,0.06,0,WeatherCatV1.14B232,2013-04-01 03:55:00,
2013-03-31 21:00:00,31.2,26.4,30.09,WNW,293,6.0,10.0,82,0.00,,,0.06,0,WeatherCatV1.14B232,2013-04-01 04:00:00,
2013-03-31 21:02:00,31.2,26.4,30.09,NW,309,5.0,7.0,82,0.00,,,0.06,0,WeatherCatV1.14B232,2013-04-01 04:02:00,
2013-03-31 21:03:00,31.2,26.4,30.09,WNW,298,4.0,6.0,82,0.00,,,0.06,0,WeatherCatV1.14B232,2013-04-01 04:03:00,
2013-03-31 21:04:00,31.2,26.1,30.09,NW,306,6.0,10.0,81,0.00,,,0.06,0,WeatherCatV1.14B232,2013-04-01 04:04:00,
2013-03-31 21:09:00,31.2,26.1,30.09,WNW,299,5.0,7.0,81,0.00,,,0.06,0,WeatherCatV1.14B232,2013-04-01 04:09:00,
2013-03-31 21:14:00,31.3,25.9,30.07,WNW,302,6.0,9.0,80,0.00,,,0.06,0,WeatherCatV1.14B232,2013-04-01 04:14:00,
2013-03-31 21:19:00,31.2,26.1,30.07,West,279,5.0,8.0,81,0.00,,,0.06,0,WeatherCatV1.14B232,2013-04-01 04:19:00,
2013-03-31 21:24:00,31.2,26.1,30.07,WNW,293,6.0,8.0,81,0.00,,,0.06,0,WeatherCatV1.14B232,2013-04-01 04:24:00,
2013-03-31 21:29:00,30.9,26.1,30.08,WNW,299,6.0,7.0,82,0.00,,,0.06,0,WeatherCatV1.14B232,2013-04-01 04:29:00,
2013-03-31 21:31:00,30.9,26.1,30.08,WNW,302,5.0,9.0,82,0.00,,,0.06,0,WeatherCatV1.14B232,2013-04-01 04:31:00,
2013-03-31 21:37:00,30.7,25.9,30.08,NW,306,2.0,7.0,82,0.00,,,0.06,0,WeatherCatV1.14B232,2013-04-01 04:37:00,
2013-03-31 21:42:00,30.6,26.1,30.08,WNW,288,5.0,6.0,83,0.00,,,0.06,0,WeatherCatV1.14B232,2013-04-01 04:42:00,
2013-03-31 21:47:00,30.6,26.1,30.08,WNW,303,5.0,6.0,83,0.00,,,0.06,0,WeatherCatV1.14B232,2013-04-01 04:47:00,
2013-03-31 21:52:00,30.4,26.2,30.08,NW,318,4.0,4.0,84,0.00,,,0.06,0,WeatherCatV1.14B232,2013-04-01 04:52:00,
2013-03-31 21:58:00,30.4,26.2,30.08,NW,320,0.0,3.0,84,0.00,,,0.06,0,WeatherCatV1.14B232,2013-04-01 04:58:00,
2013-03-31 22:03:00,30.4,26.2,30.09,NW,306,7.0,7.0,84,0.00,,,0.06,0,WeatherCatV1.14B232,2013-04-01 05:03:00,
2013-03-31 22:08:00,30.4,26.2,30.09,WNW,302,0.0,6.0,84,0.00,,,0.06,0,WeatherCatV1.14B232,2013-04-01 05:08:00,
2013-03-31 22:13:00,30.4,26.2,30.09,NW,315,1.0,8.0,84,0.00,,,0.06,0,WeatherCatV1.14B232,2013-04-01 05:13:00,
2013-03-31 22:18:00,30.6,26.1,30.08,WNW,297,7.0,12.0,83,0.00,,,0.06,0,WeatherCatV1.14B232,2013-04-01 05:18:00,
2013-03-31 22:23:00,30.7,25.9,30.08,West,268,6.0,15.0,82,0.00,,,0.06,0,WeatherCatV1.14B232,2013-04-01 05:23:00,
2013-03-31 22:28:00,30.7,25.6,30.08,WNW,293,7.0,14.0,81,0.00,,,0.06,0,WeatherCatV1.14B232,2013-04-01 05:28:00,
2013-03-31 22:33:00,30.7,25.6,30.07,NW,318,10.0,15.0,81,0.00,,,0.06,0,WeatherCatV1.14B232,2013-04-01 05:33:00,
2013-03-31 22:38:00,30.7,25.6,30.07,NW,307,13.0,16.0,81,0.00,,,0.06,0,WeatherCatV1.14B232,2013-04-01 05:38:00,
2013-03-31 22:43:00,30.6,25.5,30.07,NW,310,13.0,21.0,81,0.00,,,0.06,0,WeatherCatV1.14B232,2013-04-01 05:43:00,
2013-03-31 22:48:00,30.6,25.2,30.06,WNW,301,11.0,17.0,80,0.00,,,0.06,0,WeatherCatV1.14B232,2013-04-01 05:48:00,
2013-03-31 22:53:00,30.3,24.9,30.06,NW,310,9.0,18.0,80,0.00,,,0.06,0,WeatherCatV1.14B232,2013-04-01 05:53:00,
2013-03-31 22:58:00,30.1,24.7,30.06,NW,321,14.0,18.0,80,0.00,,,0.06,0,WeatherCatV1.14B232,2013-04-01 05:58:00,
2013-03-31 23:03:00,30.0,24.6,30.06,WNW,293,14.0,15.0,80,0.00,,,0.06,0,WeatherCatV1.14B232,2013-04-01 06:03:00,
2013-03-31 23:08:00,30.0,24.9,30.06,NNW,329,15.0,16.0,81,0.00,,,0.06,0,WeatherCatV1.14B232,2013-04-01 06:08:00,
2013-03-31 23:13:00,29.8,24.7,30.06,WSW,257,10.0,16.0,81,0.00,,,0.06,0,WeatherCatV1.14B232,2013-04-01 06:13:00,
2013-03-31 23:18:00,29.8,24.7,30.03,NW,306,11.0,16.0,81,0.00,,,0.06,0,WeatherCatV1.14B232,2013-04-01 06:18:00,
2013-03-31 23:23:00,29.8,25.0,30.03,WNW,283,9.0,16.0,82,0.00,,,0.06,0,WeatherCatV1.14B232,2013-04-01 06:23:00,
2013-03-31 23:28:00,29.7,24.9,30.03,WNW,293,9.0,18.0,82,0.00,,,0.06,0,WeatherCatV1.14B232,2013-04-01 06:28:00,
2013-03-31 23:33:00,29.5,25.0,30.03,WSW,250,7.0,14.0,83,0.00,,,0.06,0,WeatherCatV1.14B232,2013-04-01 06:33:00,
2013-03-31 23:38:00,29.4,25.2,30.03,WNW,283,9.0,17.0,84,0.00,,,0.06,0,WeatherCatV1.14B232,2013-04-01 06:38:00,
2013-03-31 23:43:00,29.5,25.3,30.03,WNW,293,15.0,17.0,84,0.00,,,0.06,0,WeatherCatV1.14B232,2013-04-01 06:43:00,
2013-03-31 23:48:00,29.5,25.6,30.03,WNW,293,17.0,20.0,85,0.00,,,0.06,0,WeatherCatV1.14B232,2013-04-01 06:48:00,
2013-03-31 23:53:00,29.4,25.7,30.03,NW,310,13.0,17.0,86,0.00,,,0.06,0,WeatherCatV1.14B232,2013-04-01 06:53:00,
2013-03-31 23:58:00,29.3,25.6,30.03,West,277,17.0,17.0,86,0.00,,,0.06,0,WeatherCatV1.14B232,2013-04-01 06:58:00,